sensor_id;sensor_type;location;lat;lon;timestamp;P1;durP1;ratioP1;P2;durP2;ratioP2
77298;SDS011;66361;52.034;20.656;2023-05-02T00:03:26;7.88;;;5.45;;
77298;SDS011;66361;52.034;20.656;2023-05-02T00:07:29;10.70;;;5.53;;
77298;SDS011;66361;52.034;20.656;2023-05-02T00:11:33;6.05;;;4.05;;
77298;SDS011;66361;52.034;20.656;2023-05-02T00:15:36;9.18;;;3.90;;
77298;SDS011;66361;52.034;20.656;2023-05-02T00:19:39;7.50;;;4.03;;
77298;SDS011;66361;52.034;20.656;2023-05-02T00:23:43;7.88;;;4.38;;
77298;SDS011;66361;52.034;20.656;2023-05-02T00:27:47;8.52;;;4.35;;
77298;SDS011;66361;52.034;20.656;2023-05-02T00:31:51;9.18;;;4.53;;
77298;SDS011;66361;52.034;20.656;2023-05-02T00:35:54;6.07;;;4.50;;
77298;SDS011;66361;52.034;20.656;2023-05-02T00:39:57;10.65;;;5.20;;
77298;SDS011;66361;52.034;20.656;2023-05-02T00:44:02;7.20;;;4.53;;
77298;SDS011;66361;52.034;20.656;2023-05-02T00:48:05;6.22;;;4.35;;
77298;SDS011;66361;52.034;20.656;2023-05-02T00:52:10;8.68;;;5.03;;
77298;SDS011;66361;52.034;20.656;2023-05-02T00:56:14;10.20;;;4.78;;
77298;SDS011;66361;52.034;20.656;2023-05-02T01:00:20;7.00;;;4.07;;
77298;SDS011;66361;52.034;20.656;2023-05-02T01:04:30;9.85;;;5.20;;
77298;SDS011;66361;52.034;20.656;2023-05-02T01:08:43;8.10;;;4.28;;
77298;SDS011;66361;52.034;20.656;2023-05-02T01:12:53;9.43;;;4.22;;
77298;SDS011;66361;52.034;20.656;2023-05-02T01:17:03;6.93;;;3.92;;
77298;SDS011;66361;52.034;20.656;2023-05-02T01:21:09;11.43;;;5.10;;
77298;SDS011;66361;52.034;20.656;2023-05-02T01:25:17;6.97;;;4.65;;
77298;SDS011;66361;52.034;20.656;2023-05-02T01:29:29;6.47;;;4.45;;
77298;SDS011;66361;52.034;20.656;2023-05-02T01:33:34;9.20;;;4.65;;
77298;SDS011;66361;52.034;20.656;2023-05-02T01:37:38;8.40;;;4.35;;
77298;SDS011;66361;52.034;20.656;2023-05-02T01:41:42;7.45;;;4.60;;
77298;SDS011;66361;52.034;20.656;2023-05-02T01:45:48;8.85;;;5.10;;
77298;SDS011;66361;52.034;20.656;2023-05-02T01:49:53;7.35;;;4.30;;
77298;SDS011;66361;52.034;20.656;2023-05-02T01:53:58;9.77;;;5.30;;
77298;SDS011;66361;52.034;20.656;2023-05-02T01:58:03;7.53;;;4.65;;
77298;SDS011;66361;52.034;20.656;2023-05-02T02:02:10;12.25;;;4.75;;
77298;SDS011;66361;52.034;20.656;2023-05-02T02:06:15;7.78;;;4.22;;
77298;SDS011;66361;52.034;20.656;2023-05-02T02:10:21;6.70;;;4.43;;
77298;SDS011;66361;52.034;20.656;2023-05-02T02:14:30;7.45;;;4.32;;
77298;SDS011;66361;52.034;20.656;2023-05-02T02:18:37;8.80;;;5.25;;
77298;SDS011;66361;52.034;20.656;2023-05-02T02:22:41;10.98;;;4.50;;
77298;SDS011;66361;52.034;20.656;2023-05-02T02:26:45;11.98;;;4.68;;
77298;SDS011;66361;52.034;20.656;2023-05-02T02:30:49;9.07;;;5.10;;
77298;SDS011;66361;52.034;20.656;2023-05-02T02:34:53;8.50;;;4.57;;
77298;SDS011;66361;52.034;20.656;2023-05-02T02:38:59;6.95;;;4.65;;
77298;SDS011;66361;52.034;20.656;2023-05-02T02:43:14;11.15;;;5.18;;
77298;SDS011;66361;52.034;20.656;2023-05-02T02:47:26;7.07;;;4.22;;
77298;SDS011;66361;52.034;20.656;2023-05-02T02:51:36;6.28;;;4.25;;
77298;SDS011;66361;52.034;20.656;2023-05-02T02:55:47;8.23;;;4.68;;
77298;SDS011;66361;52.034;20.656;2023-05-02T02:59:58;9.52;;;4.85;;
77298;SDS011;66361;52.034;20.656;2023-05-02T03:04:07;8.52;;;4.75;;
77298;SDS011;66361;52.034;20.656;2023-05-02T03:08:14;8.23;;;4.70;;
77298;SDS011;66361;52.034;20.656;2023-05-02T03:12:17;6.93;;;4.53;;
77298;SDS011;66361;52.034;20.656;2023-05-02T03:20:42;9.35;;;5.07;;
77298;SDS011;66361;52.034;20.656;2023-05-02T03:24:46;6.93;;;4.18;;
77298;SDS011;66361;52.034;20.656;2023-05-02T03:28:49;7.15;;;4.70;;
77298;SDS011;66361;52.034;20.656;2023-05-02T03:32:52;8.85;;;4.65;;
77298;SDS011;66361;52.034;20.656;2023-05-02T03:36:55;11.27;;;4.30;;
77298;SDS011;66361;52.034;20.656;2023-05-02T03:41:00;7.30;;;4.57;;
77298;SDS011;66361;52.034;20.656;2023-05-02T03:45:04;7.97;;;4.50;;
77298;SDS011;66361;52.034;20.656;2023-05-02T03:49:08;11.10;;;4.53;;
77298;SDS011;66361;52.034;20.656;2023-05-02T03:53:11;8.27;;;5.13;;
77298;SDS011;66361;52.034;20.656;2023-05-02T04:01:18;9.23;;;4.80;;
77298;SDS011;66361;52.034;20.656;2023-05-02T04:05:21;7.45;;;4.32;;
77298;SDS011;66361;52.034;20.656;2023-05-02T04:09:24;8.43;;;3.97;;
77298;SDS011;66361;52.034;20.656;2023-05-02T04:17:32;6.53;;;4.57;;
77298;SDS011;66361;52.034;20.656;2023-05-02T04:25:38;7.18;;;4.68;;
77298;SDS011;66361;52.034;20.656;2023-05-02T04:29:43;8.82;;;4.25;;
77298;SDS011;66361;52.034;20.656;2023-05-02T04:33:49;6.57;;;4.68;;
77298;SDS011;66361;52.034;20.656;2023-05-02T04:37:53;9.00;;;4.88;;
77298;SDS011;66361;52.034;20.656;2023-05-02T04:41:57;6.40;;;4.03;;
77298;SDS011;66361;52.034;20.656;2023-05-02T04:46:01;8.75;;;4.50;;
77298;SDS011;66361;52.034;20.656;2023-05-02T04:50:05;6.60;;;4.00;;
77298;SDS011;66361;52.034;20.656;2023-05-02T04:54:09;6.93;;;4.85;;
77298;SDS011;66361;52.034;20.656;2023-05-02T04:58:12;7.13;;;4.25;;
77298;SDS011;66361;52.034;20.656;2023-05-02T05:02:17;7.13;;;4.30;;
77298;SDS011;66361;52.034;20.656;2023-05-02T05:06:20;7.03;;;4.40;;
77298;SDS011;66361;52.034;20.656;2023-05-02T05:10:24;6.10;;;4.53;;
77298;SDS011;66361;52.034;20.656;2023-05-02T05:14:28;9.40;;;4.93;;
77298;SDS011;66361;52.034;20.656;2023-05-02T05:18:32;7.97;;;5.05;;
77298;SDS011;66361;52.034;20.656;2023-05-02T05:22:41;8.52;;;4.55;;
77298;SDS011;66361;52.034;20.656;2023-05-02T05:26:44;9.05;;;4.25;;
77298;SDS011;66361;52.034;20.656;2023-05-02T05:30:47;8.77;;;4.70;;
77298;SDS011;66361;52.034;20.656;2023-05-02T05:34:53;7.03;;;4.15;;
77298;SDS011;66361;52.034;20.656;2023-05-02T05:38:56;7.35;;;4.68;;
77298;SDS011;66361;52.034;20.656;2023-05-02T05:43:00;5.85;;;4.45;;
77298;SDS011;66361;52.034;20.656;2023-05-02T05:47:05;7.00;;;4.25;;
77298;SDS011;66361;52.034;20.656;2023-05-02T05:51:10;7.53;;;4.05;;
77298;SDS011;66361;52.034;20.656;2023-05-02T05:55:13;5.40;;;4.30;;
77298;SDS011;66361;52.034;20.656;2023-05-02T05:59:17;5.28;;;4.00;;
77298;SDS011;66361;52.034;20.656;2023-05-02T06:03:20;6.80;;;4.18;;
77298;SDS011;66361;52.034;20.656;2023-05-02T06:07:25;6.32;;;4.20;;
77298;SDS011;66361;52.034;20.656;2023-05-02T06:11:28;7.00;;;4.25;;
77298;SDS011;66361;52.034;20.656;2023-05-02T06:15:32;4.38;;;3.40;;
77298;SDS011;66361;52.034;20.656;2023-05-02T06:19:35;7.40;;;3.92;;
77298;SDS011;66361;52.034;20.656;2023-05-02T06:23:40;5.90;;;3.50;;
77298;SDS011;66361;52.034;20.656;2023-05-02T06:27:43;5.85;;;4.38;;
77298;SDS011;66361;52.034;20.656;2023-05-02T06:31:46;3.97;;;3.25;;
77298;SDS011;66361;52.034;20.656;2023-05-02T06:35:51;5.47;;;3.95;;
77298;SDS011;66361;52.034;20.656;2023-05-02T06:39:56;4.65;;;3.40;;
77298;SDS011;66361;52.034;20.656;2023-05-02T06:43:59;5.13;;;3.00;;
77298;SDS011;66361;52.034;20.656;2023-05-02T06:48:02;6.40;;;3.67;;
77298;SDS011;66361;52.034;20.656;2023-05-02T06:52:05;5.20;;;3.10;;
77298;SDS011;66361;52.034;20.656;2023-05-02T06:56:10;5.35;;;3.60;;
77298;SDS011;66361;52.034;20.656;2023-05-02T07:00:14;4.75;;;3.53;;
77298;SDS011;66361;52.034;20.656;2023-05-02T07:04:17;6.85;;;3.08;;
77298;SDS011;66361;52.034;20.656;2023-05-02T07:08:21;5.80;;;3.70;;
77298;SDS011;66361;52.034;20.656;2023-05-02T07:12:25;7.25;;;3.45;;
77298;SDS011;66361;52.034;20.656;2023-05-02T07:16:29;6.68;;;3.85;;
77298;SDS011;66361;52.034;20.656;2023-05-02T07:20:34;5.63;;;3.50;;
77298;SDS011;66361;52.034;20.656;2023-05-02T07:24:39;6.93;;;3.50;;
77298;SDS011;66361;52.034;20.656;2023-05-02T07:28:44;5.47;;;3.42;;
77298;SDS011;66361;52.034;20.656;2023-05-02T07:32:47;6.57;;;3.53;;
77298;SDS011;66361;52.034;20.656;2023-05-02T07:36:50;5.40;;;3.38;;
77298;SDS011;66361;52.034;20.656;2023-05-02T07:40:53;4.20;;;3.30;;
77298;SDS011;66361;52.034;20.656;2023-05-02T07:45:01;4.97;;;3.33;;
77298;SDS011;66361;52.034;20.656;2023-05-02T07:49:04;4.05;;;3.60;;
77298;SDS011;66361;52.034;20.656;2023-05-02T07:53:07;6.63;;;3.42;;
77298;SDS011;66361;52.034;20.656;2023-05-02T07:57:11;7.80;;;3.80;;
77298;SDS011;66361;52.034;20.656;2023-05-02T08:01:15;5.95;;;3.53;;
77298;SDS011;66361;52.034;20.656;2023-05-02T08:05:18;6.50;;;3.88;;
77298;SDS011;66361;52.034;20.656;2023-05-02T08:09:23;4.47;;;3.47;;
77298;SDS011;66361;52.034;20.656;2023-05-02T08:13:28;5.85;;;3.63;;
77298;SDS011;66361;52.034;20.656;2023-05-02T08:17:33;6.63;;;4.10;;
77298;SDS011;66361;52.034;20.656;2023-05-02T08:21:35;4.75;;;3.80;;
77298;SDS011;66361;52.034;20.656;2023-05-02T08:25:39;5.07;;;4.15;;
77298;SDS011;66361;52.034;20.656;2023-05-02T08:29:42;6.97;;;3.80;;
77298;SDS011;66361;52.034;20.656;2023-05-02T08:33:47;6.03;;;3.97;;
77298;SDS011;66361;52.034;20.656;2023-05-02T08:37:50;5.75;;;3.85;;
77298;SDS011;66361;52.034;20.656;2023-05-02T08:41:52;5.15;;;3.70;;
77298;SDS011;66361;52.034;20.656;2023-05-02T08:45:55;6.28;;;4.28;;
77298;SDS011;66361;52.034;20.656;2023-05-02T08:50:05;5.35;;;3.88;;
77298;SDS011;66361;52.034;20.656;2023-05-02T08:54:10;6.90;;;4.00;;
77298;SDS011;66361;52.034;20.656;2023-05-02T09:02:22;6.35;;;3.85;;
77298;SDS011;66361;52.034;20.656;2023-05-02T09:06:40;5.85;;;4.10;;
77298;SDS011;66361;52.034;20.656;2023-05-02T09:10:43;5.50;;;4.80;;
77298;SDS011;66361;52.034;20.656;2023-05-02T09:14:48;7.22;;;4.50;;
77298;SDS011;66361;52.034;20.656;2023-05-02T09:19:11;6.30;;;4.97;;
77298;SDS011;66361;52.034;20.656;2023-05-02T09:23:33;6.32;;;5.30;;
77298;SDS011;66361;52.034;20.656;2023-05-02T09:27:50;8.68;;;5.53;;
77298;SDS011;66361;52.034;20.656;2023-05-02T09:31:54;7.93;;;5.03;;
77298;SDS011;66361;52.034;20.656;2023-05-02T09:35:57;6.68;;;4.72;;
77298;SDS011;66361;52.034;20.656;2023-05-02T09:40:05;7.00;;;4.90;;
77298;SDS011;66361;52.034;20.656;2023-05-02T09:44:13;6.22;;;4.88;;
77298;SDS011;66361;52.034;20.656;2023-05-02T09:48:18;6.85;;;5.35;;
77298;SDS011;66361;52.034;20.656;2023-05-02T09:52:21;6.43;;;4.53;;
77298;SDS011;66361;52.034;20.656;2023-05-02T09:56:26;7.30;;;5.00;;
77298;SDS011;66361;52.034;20.656;2023-05-02T10:00:39;5.88;;;5.22;;
77298;SDS011;66361;52.034;20.656;2023-05-02T10:04:43;5.95;;;4.72;;
77298;SDS011;66361;52.034;20.656;2023-05-02T10:08:48;6.70;;;5.20;;
77298;SDS011;66361;52.034;20.656;2023-05-02T10:12:54;6.28;;;5.68;;
77298;SDS011;66361;52.034;20.656;2023-05-02T10:16:59;6.40;;;4.60;;
77298;SDS011;66361;52.034;20.656;2023-05-02T10:25:10;6.43;;;5.15;;
77298;SDS011;66361;52.034;20.656;2023-05-02T10:29:15;6.97;;;4.70;;
77298;SDS011;66361;52.034;20.656;2023-05-02T10:33:21;5.40;;;4.68;;
77298;SDS011;66361;52.034;20.656;2023-05-02T10:37:27;5.82;;;5.00;;
77298;SDS011;66361;52.034;20.656;2023-05-02T10:41:33;8.63;;;5.30;;
77298;SDS011;66361;52.034;20.656;2023-05-02T10:45:41;9.32;;;5.28;;
77298;SDS011;66361;52.034;20.656;2023-05-02T10:49:50;8.20;;;5.28;;
77298;SDS011;66361;52.034;20.656;2023-05-02T10:53:54;7.80;;;5.00;;
77298;SDS011;66361;52.034;20.656;2023-05-02T10:58:20;9.45;;;5.50;;
77298;SDS011;66361;52.034;20.656;2023-05-02T11:11:37;7.97;;;6.60;;
77298;SDS011;66361;52.034;20.656;2023-05-02T11:15:54;8.77;;;6.10;;
77298;SDS011;66361;52.034;20.656;2023-05-02T11:24:39;7.95;;;6.00;;
77298;SDS011;66361;52.034;20.656;2023-05-02T11:28:44;8.88;;;6.40;;
77298;SDS011;66361;52.034;20.656;2023-05-02T11:37:19;9.57;;;5.65;;
77298;SDS011;66361;52.034;20.656;2023-05-02T11:41:22;7.53;;;5.43;;
77298;SDS011;66361;52.034;20.656;2023-05-02T11:45:43;7.95;;;6.00;;
77298;SDS011;66361;52.034;20.656;2023-05-02T11:49:46;7.35;;;5.18;;
77298;SDS011;66361;52.034;20.656;2023-05-02T11:53:51;6.85;;;5.10;;
77298;SDS011;66361;52.034;20.656;2023-05-02T11:57:56;6.28;;;4.05;;
77298;SDS011;66361;52.034;20.656;2023-05-02T12:01:59;6.28;;;4.03;;
77298;SDS011;66361;52.034;20.656;2023-05-02T12:06:07;5.65;;;4.10;;
77298;SDS011;66361;52.034;20.656;2023-05-02T12:10:14;4.55;;;3.58;;
77298;SDS011;66361;52.034;20.656;2023-05-02T12:14:17;5.10;;;4.20;;
77298;SDS011;66361;52.034;20.656;2023-05-02T12:18:28;8.18;;;4.50;;
77298;SDS011;66361;52.034;20.656;2023-05-02T12:22:31;7.03;;;5.40;;
77298;SDS011;66361;52.034;20.656;2023-05-02T12:26:37;7.65;;;5.60;;
77298;SDS011;66361;52.034;20.656;2023-05-02T12:30:40;6.63;;;5.15;;
77298;SDS011;66361;52.034;20.656;2023-05-02T12:34:43;7.43;;;5.60;;
77298;SDS011;66361;52.034;20.656;2023-05-02T12:38:47;7.47;;;5.55;;
77298;SDS011;66361;52.034;20.656;2023-05-02T12:43:01;6.32;;;5.30;;
77298;SDS011;66361;52.034;20.656;2023-05-02T12:47:08;6.60;;;4.82;;
77298;SDS011;66361;52.034;20.656;2023-05-02T12:51:21;6.55;;;4.82;;
77298;SDS011;66361;52.034;20.656;2023-05-02T12:55:25;7.53;;;4.85;;
77298;SDS011;66361;52.034;20.656;2023-05-02T12:59:30;7.00;;;4.55;;
77298;SDS011;66361;52.034;20.656;2023-05-02T13:03:33;6.90;;;4.90;;
77298;SDS011;66361;52.034;20.656;2023-05-02T13:07:37;5.07;;;4.18;;
77298;SDS011;66361;52.034;20.656;2023-05-02T13:11:39;7.22;;;4.38;;
77298;SDS011;66361;52.034;20.656;2023-05-02T13:15:44;5.82;;;4.18;;
77298;SDS011;66361;52.034;20.656;2023-05-02T13:19:47;6.05;;;4.85;;
77298;SDS011;66361;52.034;20.656;2023-05-02T13:24:02;7.47;;;4.90;;
77298;SDS011;66361;52.034;20.656;2023-05-02T13:28:05;6.25;;;3.90;;
77298;SDS011;66361;52.034;20.656;2023-05-02T13:32:09;5.75;;;3.67;;
77298;SDS011;66361;52.034;20.656;2023-05-02T13:36:12;4.75;;;3.40;;
77298;SDS011;66361;52.034;20.656;2023-05-02T13:40:15;6.00;;;3.70;;
77298;SDS011;66361;52.034;20.656;2023-05-02T13:44:19;5.97;;;3.38;;
77298;SDS011;66361;52.034;20.656;2023-05-02T13:48:23;4.97;;;3.90;;
77298;SDS011;66361;52.034;20.656;2023-05-02T13:52:26;8.85;;;3.70;;
77298;SDS011;66361;52.034;20.656;2023-05-02T13:56:29;5.63;;;3.40;;
77298;SDS011;66361;52.034;20.656;2023-05-02T14:00:32;7.13;;;4.30;;
77298;SDS011;66361;52.034;20.656;2023-05-02T14:04:36;5.75;;;3.45;;
77298;SDS011;66361;52.034;20.656;2023-05-02T14:08:40;5.70;;;3.47;;
77298;SDS011;66361;52.034;20.656;2023-05-02T14:12:43;8.50;;;3.72;;
77298;SDS011;66361;52.034;20.656;2023-05-02T14:16:50;6.13;;;3.45;;
77298;SDS011;66361;52.034;20.656;2023-05-02T14:21:00;3.95;;;3.35;;
77298;SDS011;66361;52.034;20.656;2023-05-02T14:25:04;5.93;;;3.75;;
77298;SDS011;66361;52.034;20.656;2023-05-02T14:29:11;5.10;;;3.40;;
77298;SDS011;66361;52.034;20.656;2023-05-02T14:33:19;4.75;;;3.33;;
77298;SDS011;66361;52.034;20.656;2023-05-02T14:37:24;7.55;;;3.72;;
77298;SDS011;66361;52.034;20.656;2023-05-02T14:41:27;8.15;;;4.00;;
77298;SDS011;66361;52.034;20.656;2023-05-02T14:45:30;5.55;;;3.60;;
77298;SDS011;66361;52.034;20.656;2023-05-02T14:49:34;5.20;;;3.42;;
77298;SDS011;66361;52.034;20.656;2023-05-02T14:53:39;5.97;;;4.10;;
77298;SDS011;66361;52.034;20.656;2023-05-02T14:57:45;5.13;;;4.47;;
77298;SDS011;66361;52.034;20.656;2023-05-02T15:01:58;4.88;;;3.72;;
77298;SDS011;66361;52.034;20.656;2023-05-02T15:06:01;7.45;;;3.72;;
77298;SDS011;66361;52.034;20.656;2023-05-02T15:10:07;4.60;;;4.03;;
77298;SDS011;66361;52.034;20.656;2023-05-02T15:14:11;6.70;;;3.78;;
77298;SDS011;66361;52.034;20.656;2023-05-02T15:18:17;5.60;;;4.10;;
77298;SDS011;66361;52.034;20.656;2023-05-02T15:22:20;5.95;;;3.83;;
77298;SDS011;66361;52.034;20.656;2023-05-02T15:26:46;5.80;;;4.60;;
77298;SDS011;66361;52.034;20.656;2023-05-02T15:30:50;5.57;;;3.67;;
77298;SDS011;66361;52.034;20.656;2023-05-02T15:34:54;6.55;;;3.97;;
77298;SDS011;66361;52.034;20.656;2023-05-02T15:39:03;6.00;;;3.92;;
77298;SDS011;66361;52.034;20.656;2023-05-02T15:43:07;4.30;;;3.53;;
77298;SDS011;66361;52.034;20.656;2023-05-02T15:47:11;7.60;;;5.18;;
77298;SDS011;66361;52.034;20.656;2023-05-02T15:51:15;5.32;;;4.68;;
77298;SDS011;66361;52.034;20.656;2023-05-02T15:55:19;5.35;;;4.25;;
77298;SDS011;66361;52.034;20.656;2023-05-02T15:59:26;4.97;;;3.97;;
77298;SDS011;66361;52.034;20.656;2023-05-02T16:03:31;7.22;;;4.10;;
77298;SDS011;66361;52.034;20.656;2023-05-02T16:07:35;11.00;;;4.25;;
77298;SDS011;66361;52.034;20.656;2023-05-02T16:11:39;5.57;;;3.95;;
77298;SDS011;66361;52.034;20.656;2023-05-02T16:15:46;5.63;;;4.63;;
77298;SDS011;66361;52.034;20.656;2023-05-02T16:19:49;5.80;;;4.10;;
77298;SDS011;66361;52.034;20.656;2023-05-02T16:23:53;7.47;;;4.35;;
77298;SDS011;66361;52.034;20.656;2023-05-02T16:27:56;8.45;;;4.70;;
77298;SDS011;66361;52.034;20.656;2023-05-02T16:32:02;6.47;;;4.30;;
77298;SDS011;66361;52.034;20.656;2023-05-02T16:36:06;5.97;;;4.00;;
77298;SDS011;66361;52.034;20.656;2023-05-02T16:40:13;7.00;;;4.90;;
77298;SDS011;66361;52.034;20.656;2023-05-02T16:44:17;4.90;;;3.80;;
77298;SDS011;66361;52.034;20.656;2023-05-02T16:48:23;6.40;;;5.00;;
77298;SDS011;66361;52.034;20.656;2023-05-02T16:52:27;6.18;;;4.32;;
77298;SDS011;66361;52.034;20.656;2023-05-02T16:56:32;6.50;;;4.75;;
77298;SDS011;66361;52.034;20.656;2023-05-02T17:00:35;5.97;;;4.38;;
77298;SDS011;66361;52.034;20.656;2023-05-02T17:04:41;6.28;;;4.65;;
77298;SDS011;66361;52.034;20.656;2023-05-02T17:08:44;6.55;;;5.03;;
77298;SDS011;66361;52.034;20.656;2023-05-02T17:12:47;8.32;;;5.32;;
77298;SDS011;66361;52.034;20.656;2023-05-02T17:16:50;7.78;;;4.68;;
77298;SDS011;66361;52.034;20.656;2023-05-02T17:20:54;54.95;;;8.52;;
77298;SDS011;66361;52.034;20.656;2023-05-02T17:24:57;10.68;;;5.88;;
77298;SDS011;66361;52.034;20.656;2023-05-02T17:29:00;8.57;;;6.55;;
77298;SDS011;66361;52.034;20.656;2023-05-02T17:33:03;9.40;;;5.45;;
77298;SDS011;66361;52.034;20.656;2023-05-02T17:37:07;7.03;;;5.65;;
77298;SDS011;66361;52.034;20.656;2023-05-02T17:41:11;7.90;;;6.00;;
77298;SDS011;66361;52.034;20.656;2023-05-02T17:45:15;9.88;;;6.50;;
77298;SDS011;66361;52.034;20.656;2023-05-02T17:49:18;18.88;;;7.32;;
77298;SDS011;66361;52.034;20.656;2023-05-02T17:53:23;8.10;;;5.63;;
77298;SDS011;66361;52.034;20.656;2023-05-02T17:57:26;10.35;;;6.00;;
77298;SDS011;66361;52.034;20.656;2023-05-02T18:01:30;49.20;;;8.63;;
77298;SDS011;66361;52.034;20.656;2023-05-02T18:05:36;10.40;;;5.63;;
77298;SDS011;66361;52.034;20.656;2023-05-02T18:09:41;9.73;;;5.70;;
77298;SDS011;66361;52.034;20.656;2023-05-02T18:13:44;12.30;;;6.43;;
77298;SDS011;66361;52.034;20.656;2023-05-02T18:17:48;7.03;;;6.07;;
77298;SDS011;66361;52.034;20.656;2023-05-02T18:21:52;10.27;;;7.93;;
77298;SDS011;66361;52.034;20.656;2023-05-02T18:25:56;13.00;;;7.50;;
77298;SDS011;66361;52.034;20.656;2023-05-02T18:29:59;14.05;;;8.57;;
77298;SDS011;66361;52.034;20.656;2023-05-02T18:34:02;14.52;;;8.52;;
77298;SDS011;66361;52.034;20.656;2023-05-02T18:38:06;12.05;;;8.60;;
77298;SDS011;66361;52.034;20.656;2023-05-02T18:42:10;11.38;;;8.15;;
77298;SDS011;66361;52.034;20.656;2023-05-02T18:46:14;10.98;;;8.55;;
77298;SDS011;66361;52.034;20.656;2023-05-02T18:50:18;13.13;;;7.63;;
77298;SDS011;66361;52.034;20.656;2023-05-02T18:54:22;9.00;;;7.85;;
77298;SDS011;66361;52.034;20.656;2023-05-02T18:58:27;10.38;;;7.90;;
77298;SDS011;66361;52.034;20.656;2023-05-02T19:02:31;12.60;;;7.43;;
77298;SDS011;66361;52.034;20.656;2023-05-02T19:06:34;9.90;;;6.85;;
77298;SDS011;66361;52.034;20.656;2023-05-02T19:10:37;8.70;;;6.22;;
77298;SDS011;66361;52.034;20.656;2023-05-02T19:14:42;7.78;;;6.03;;
77298;SDS011;66361;52.034;20.656;2023-05-02T19:18:45;8.45;;;5.70;;
77298;SDS011;66361;52.034;20.656;2023-05-02T19:22:52;7.78;;;5.82;;
77298;SDS011;66361;52.034;20.656;2023-05-02T19:27:07;7.72;;;5.85;;
77298;SDS011;66361;52.034;20.656;2023-05-02T19:31:12;8.63;;;5.40;;
77298;SDS011;66361;52.034;20.656;2023-05-02T19:35:17;8.80;;;6.63;;
77298;SDS011;66361;52.034;20.656;2023-05-02T19:39:20;10.55;;;6.40;;
77298;SDS011;66361;52.034;20.656;2023-05-02T19:43:23;9.07;;;6.78;;
77298;SDS011;66361;52.034;20.656;2023-05-02T19:47:28;9.95;;;6.80;;
77298;SDS011;66361;52.034;20.656;2023-05-02T19:51:32;10.02;;;7.30;;
77298;SDS011;66361;52.034;20.656;2023-05-02T19:55:42;10.27;;;7.90;;
77298;SDS011;66361;52.034;20.656;2023-05-02T19:59:58;9.95;;;8.15;;
77298;SDS011;66361;52.034;20.656;2023-05-02T20:04:09;14.60;;;7.75;;
77298;SDS011;66361;52.034;20.656;2023-05-02T20:08:17;9.77;;;8.63;;
77298;SDS011;66361;52.034;20.656;2023-05-02T20:12:45;11.45;;;9.25;;
77298;SDS011;66361;52.034;20.656;2023-05-02T20:16:48;13.20;;;9.07;;
77298;SDS011;66361;52.034;20.656;2023-05-02T20:21:18;15.30;;;10.05;;
77298;SDS011;66361;52.034;20.656;2023-05-02T20:25:45;14.13;;;9.73;;
77298;SDS011;66361;52.034;20.656;2023-05-02T20:30:03;13.13;;;9.20;;
77298;SDS011;66361;52.034;20.656;2023-05-02T20:34:15;10.60;;;8.75;;
77298;SDS011;66361;52.034;20.656;2023-05-02T20:38:33;11.98;;;8.10;;
77298;SDS011;66361;52.034;20.656;2023-05-02T20:42:36;14.68;;;9.02;;
77298;SDS011;66361;52.034;20.656;2023-05-02T20:46:41;13.65;;;8.35;;
77298;SDS011;66361;52.034;20.656;2023-05-02T20:50:52;11.13;;;7.80;;
77298;SDS011;66361;52.034;20.656;2023-05-02T20:54:59;9.15;;;7.10;;
77298;SDS011;66361;52.034;20.656;2023-05-02T20:59:03;9.70;;;7.30;;
77298;SDS011;66361;52.034;20.656;2023-05-02T21:03:13;10.35;;;6.88;;
77298;SDS011;66361;52.034;20.656;2023-05-02T21:07:19;13.35;;;8.35;;
77298;SDS011;66361;52.034;20.656;2023-05-02T21:11:24;11.57;;;6.57;;
77298;SDS011;66361;52.034;20.656;2023-05-02T21:15:28;9.90;;;7.40;;
77298;SDS011;66361;52.034;20.656;2023-05-02T21:19:36;12.73;;;7.85;;
77298;SDS011;66361;52.034;20.656;2023-05-02T21:23:39;14.57;;;8.77;;
77298;SDS011;66361;52.034;20.656;2023-05-02T21:27:43;14.13;;;7.88;;
77298;SDS011;66361;52.034;20.656;2023-05-02T21:31:48;13.98;;;9.13;;
77298;SDS011;66361;52.034;20.656;2023-05-02T21:35:55;14.15;;;9.13;;
77298;SDS011;66361;52.034;20.656;2023-05-02T21:40:02;15.35;;;9.93;;
77298;SDS011;66361;52.034;20.656;2023-05-02T21:44:10;14.32;;;9.30;;
77298;SDS011;66361;52.034;20.656;2023-05-02T21:48:14;16.17;;;9.10;;
77298;SDS011;66361;52.034;20.656;2023-05-02T21:52:18;16.98;;;10.00;;
77298;SDS011;66361;52.034;20.656;2023-05-02T21:56:21;13.88;;;11.02;;
77298;SDS011;66361;52.034;20.656;2023-05-02T22:00:25;13.63;;;9.30;;
77298;SDS011;66361;52.034;20.656;2023-05-02T22:04:28;14.55;;;11.30;;
77298;SDS011;66361;52.034;20.656;2023-05-02T22:08:32;14.93;;;10.73;;
77298;SDS011;66361;52.034;20.656;2023-05-02T22:12:34;14.27;;;10.43;;
77298;SDS011;66361;52.034;20.656;2023-05-02T22:16:39;15.18;;;10.15;;
77298;SDS011;66361;52.034;20.656;2023-05-02T22:20:42;14.30;;;10.25;;
77298;SDS011;66361;52.034;20.656;2023-05-02T22:24:46;15.77;;;10.98;;
77298;SDS011;66361;52.034;20.656;2023-05-02T22:28:49;16.25;;;10.52;;
77298;SDS011;66361;52.034;20.656;2023-05-02T22:32:53;15.30;;;10.65;;
77298;SDS011;66361;52.034;20.656;2023-05-02T22:36:56;14.20;;;9.90;;
77298;SDS011;66361;52.034;20.656;2023-05-02T22:40:59;12.20;;;8.73;;
77298;SDS011;66361;52.034;20.656;2023-05-02T22:45:03;12.70;;;9.77;;
77298;SDS011;66361;52.034;20.656;2023-05-02T22:49:09;13.95;;;9.60;;
77298;SDS011;66361;52.034;20.656;2023-05-02T22:53:12;13.75;;;7.78;;
77298;SDS011;66361;52.034;20.656;2023-05-02T22:57:16;17.02;;;8.90;;
77298;SDS011;66361;52.034;20.656;2023-05-02T23:01:19;13.15;;;7.97;;
77298;SDS011;66361;52.034;20.656;2023-05-02T23:05:24;11.32;;;9.00;;
77298;SDS011;66361;52.034;20.656;2023-05-02T23:09:30;12.50;;;8.40;;
77298;SDS011;66361;52.034;20.656;2023-05-02T23:13:33;11.27;;;8.25;;
77298;SDS011;66361;52.034;20.656;2023-05-02T23:17:37;13.55;;;8.02;;
77298;SDS011;66361;52.034;20.656;2023-05-02T23:21:42;11.18;;;7.68;;
77298;SDS011;66361;52.034;20.656;2023-05-02T23:25:46;10.23;;;7.13;;
77298;SDS011;66361;52.034;20.656;2023-05-02T23:29:49;10.13;;;6.90;;
77298;SDS011;66361;52.034;20.656;2023-05-02T23:33:53;9.18;;;6.60;;
77298;SDS011;66361;52.034;20.656;2023-05-02T23:37:58;10.70;;;7.20;;
77298;SDS011;66361;52.034;20.656;2023-05-02T23:42:06;8.40;;;5.57;;
77298;SDS011;66361;52.034;20.656;2023-05-02T23:46:09;9.27;;;5.63;;
77298;SDS011;66361;52.034;20.656;2023-05-02T23:50:13;10.90;;;6.35;;
77298;SDS011;66361;52.034;20.656;2023-05-02T23:54:17;9.45;;;6.18;;
77298;SDS011;66361;52.034;20.656;2023-05-02T23:58:20;9.10;;;5.82;;
